createdAt,value
2019-05-20T00:04:07.348Z,16.50
2019-05-20T00:08:19.515Z,16.40
2019-05-20T00:12:29.806Z,16.40
2019-05-20T00:16:40.114Z,16.30
2019-05-20T00:20:51.936Z,16.40
2019-05-20T00:25:02.154Z,16.30
2019-05-20T00:29:12.829Z,16.10
2019-05-20T00:33:23.321Z,16.10
2019-05-20T00:37:33.616Z,16.20
2019-05-20T00:41:45.241Z,16.20
2019-05-20T00:45:55.638Z,16.20
2019-05-20T00:50:06.404Z,16.20
2019-05-20T00:54:17.104Z,16.30
2019-05-20T00:58:27.596Z,16.30
2019-05-20T01:02:37.889Z,16.30
2019-05-20T01:06:48.189Z,16.30
2019-05-20T01:10:58.543Z,16.40
2019-05-20T01:15:10.994Z,16.40
2019-05-20T01:19:21.227Z,16.40
2019-05-20T01:23:31.696Z,16.40
2019-05-20T01:27:42.003Z,16.30
2019-05-20T01:31:52.325Z,16.20
2019-05-20T01:36:02.545Z,16.10
2019-05-20T01:40:13.213Z,16.00
2019-05-20T01:44:23.471Z,15.90
2019-05-20T01:48:33.803Z,15.90
2019-05-20T01:52:44.047Z,15.80
2019-05-20T01:56:54.397Z,15.70
2019-05-20T02:01:04.697Z,15.60
2019-05-20T02:05:15.063Z,15.50
2019-05-20T02:09:25.401Z,15.50
2019-05-20T02:13:37.408Z,15.60
2019-05-20T02:17:47.848Z,15.50
2019-05-20T02:21:58.149Z,15.50
2019-05-20T02:26:09.111Z,15.40
2019-05-20T02:30:19.439Z,15.30
2019-05-20T02:34:29.798Z,15.20
2019-05-20T02:38:41.201Z,15.20
2019-05-20T02:42:53.284Z,15.10
2019-05-20T02:47:03.697Z,15.00
2019-05-20T02:51:14.030Z,15.00
2019-05-20T02:55:24.350Z,14.90
2019-05-20T02:59:34.665Z,14.90
2019-05-20T03:03:45.007Z,14.90
2019-05-20T03:07:55.249Z,14.90
2019-05-20T03:12:05.614Z,14.90
2019-05-20T03:16:16.110Z,14.80
2019-05-20T03:20:26.448Z,14.80
2019-05-20T03:24:37.948Z,14.60
2019-05-20T03:28:48.946Z,14.30
2019-05-20T03:33:00.063Z,14.30
2019-05-20T03:37:10.385Z,14.50
2019-05-20T03:41:21.465Z,14.70
2019-05-20T03:45:32.365Z,14.90
2019-05-20T03:49:42.636Z,15.30
2019-05-20T03:53:52.844Z,15.70
2019-05-20T03:58:03.262Z,15.80
2019-05-20T04:02:14.303Z,15.70
2019-05-20T04:06:26.414Z,15.50
2019-05-20T04:10:36.737Z,15.30
2019-05-20T04:14:47.067Z,15.40
2019-05-20T04:18:57.548Z,15.50
2019-05-20T04:23:07.959Z,15.70
2019-05-20T04:27:18.829Z,15.80
2019-05-20T04:31:29.137Z,15.70
2019-05-20T04:35:39.421Z,15.60
2019-05-20T04:39:49.802Z,15.80
2019-05-20T04:44:02.752Z,16.50
2019-05-20T04:48:14.063Z,16.70
2019-05-20T04:52:24.445Z,17.30
2019-05-20T04:56:34.724Z,18.00
2019-05-20T05:00:50.343Z,18.80
2019-05-20T05:05:00.670Z,19.00
2019-05-20T05:09:15.461Z,19.10
2019-05-20T05:13:24.412Z,19.40
2019-05-20T05:17:35.896Z,19.50
2019-05-20T05:21:46.659Z,19.00
2019-05-20T05:25:58.115Z,18.10
2019-05-20T05:30:08.779Z,17.60
2019-05-20T05:34:19.298Z,17.70
2019-05-20T05:38:29.696Z,18.40
2019-05-20T05:42:40.008Z,18.80
2019-05-20T05:46:50.356Z,19.30
2019-05-20T05:51:00.657Z,19.40
2019-05-20T05:55:11.195Z,19.50
2019-05-20T05:59:21.539Z,20.30
2019-05-20T06:03:31.884Z,20.80
2019-05-20T06:07:42.288Z,21.00
2019-05-20T06:11:53.385Z,21.10
2019-05-20T06:16:04.046Z,21.20
2019-05-20T06:20:14.993Z,20.90
2019-05-20T06:24:25.340Z,20.50
2019-05-20T06:28:37.990Z,20.00
2019-05-20T06:32:48.350Z,19.80
2019-05-20T06:37:03.987Z,20.00
2019-05-20T06:41:15.105Z,20.00
2019-05-20T06:45:25.424Z,19.80
2019-05-20T06:49:35.903Z,20.00
2019-05-20T06:53:46.261Z,19.90
2019-05-20T06:57:56.632Z,20.00
2019-05-20T07:02:07.118Z,20.30
2019-05-20T07:06:18.429Z,20.10
2019-05-20T07:10:28.641Z,20.20
2019-05-20T07:14:38.998Z,20.40
2019-05-20T07:18:49.363Z,21.10
2019-05-20T07:23:00.173Z,22.00
2019-05-20T07:27:10.409Z,22.20
2019-05-20T07:31:20.727Z,22.70
2019-05-20T07:35:31.468Z,23.00
2019-05-20T07:39:43.589Z,22.90
2019-05-20T07:43:55.192Z,23.10
2019-05-20T07:48:06.001Z,23.60
2019-05-20T07:52:16.300Z,24.10
2019-05-20T07:56:29.577Z,24.40
2019-05-20T08:00:40.818Z,24.00
2019-05-20T08:04:52.096Z,23.10
2019-05-20T08:09:04.744Z,23.00
2019-05-20T08:13:15.095Z,23.90
2019-05-20T08:17:25.641Z,24.00
2019-05-20T08:21:35.960Z,24.50
2019-05-20T08:25:46.499Z,24.80
2019-05-20T08:29:56.833Z,25.20
2019-05-20T08:34:07.177Z,24.80
2019-05-20T08:38:18.081Z,25.30
2019-05-20T08:42:31.146Z,25.70
2019-05-20T08:46:41.500Z,25.90
2019-05-20T08:50:51.822Z,25.20
2019-05-20T08:55:02.674Z,24.90
2019-05-20T08:59:13.111Z,24.70
2019-05-20T09:03:23.535Z,24.20
2019-05-20T09:07:34.381Z,23.70
2019-05-20T09:11:47.667Z,23.90
2019-05-20T09:15:58.228Z,23.90
2019-05-20T09:20:10.161Z,24.30
2019-05-20T09:24:20.511Z,25.00
2019-05-20T09:28:30.758Z,25.50
2019-05-20T09:32:42.904Z,25.30
2019-05-20T09:36:53.678Z,25.60
2019-05-20T09:41:04.053Z,25.20
2019-05-20T09:45:14.382Z,24.60
2019-05-20T09:49:24.789Z,24.10
2019-05-20T09:53:35.190Z,24.00
2019-05-20T09:57:45.522Z,23.90
2019-05-20T10:01:56.049Z,23.40
2019-05-20T10:06:06.513Z,23.40
2019-05-20T10:10:17.011Z,23.20
2019-05-20T10:14:27.274Z,23.00
2019-05-20T10:18:39.233Z,22.80
2019-05-20T10:22:49.490Z,23.00
2019-05-20T10:26:59.955Z,23.00
2019-05-20T10:31:10.307Z,22.90
2019-05-20T10:35:22.232Z,22.70
2019-05-20T10:39:32.569Z,22.70
2019-05-20T10:43:42.959Z,22.80
2019-05-20T10:47:53.336Z,23.40
2019-05-20T10:52:03.637Z,23.70
2019-05-20T10:56:14.274Z,23.90
2019-05-20T11:00:25.061Z,23.70
2019-05-20T11:04:35.716Z,23.50
2019-05-20T11:08:46.110Z,23.70
2019-05-20T11:12:56.462Z,23.30
2019-05-20T11:17:06.929Z,23.20
2019-05-20T11:21:17.260Z,23.00
2019-05-20T11:25:27.573Z,22.90
2019-05-20T11:29:37.911Z,22.70
2019-05-20T11:33:49.504Z,22.70
2019-05-20T11:38:00.641Z,22.70
2019-05-20T11:42:11.005Z,22.80
2019-05-20T11:46:21.568Z,22.80
2019-05-20T11:50:32.785Z,22.60
2019-05-20T11:54:43.037Z,22.50
2019-05-20T11:58:53.448Z,22.40
2019-05-20T12:03:03.907Z,22.40
2019-05-20T12:07:14.350Z,22.40
2019-05-20T12:11:24.665Z,22.40
2019-05-20T12:15:34.994Z,22.40
2019-05-20T12:19:45.873Z,22.30
2019-05-20T12:23:56.378Z,22.20
2019-05-20T12:28:06.806Z,22.10
2019-05-20T12:32:18.592Z,22.10
2019-05-20T12:36:28.905Z,22.00
2019-05-20T12:40:40.864Z,21.90
2019-05-20T12:44:52.238Z,21.80
2019-05-20T12:49:02.662Z,21.60
2019-05-20T12:53:13.322Z,21.40
2019-05-20T12:57:23.501Z,21.20
2019-05-20T13:01:33.947Z,21.10
2019-05-20T13:05:44.451Z,21.00
2019-05-20T13:09:54.921Z,21.00
2019-05-20T13:14:05.244Z,21.30
2019-05-20T13:18:16.154Z,21.50
2019-05-20T13:22:26.581Z,21.50
2019-05-20T13:26:36.856Z,21.40
2019-05-20T13:30:47.439Z,21.40
2019-05-20T13:34:57.741Z,21.30
2019-05-20T13:39:08.417Z,21.20
2019-05-20T13:43:18.766Z,20.90
2019-05-20T13:47:29.065Z,20.70
2019-05-20T13:51:39.437Z,20.60
2019-05-20T13:55:51.244Z,20.40
2019-05-20T14:00:01.556Z,20.30
2019-05-20T14:04:12.818Z,20.40
2019-05-20T14:08:23.107Z,20.50
2019-05-20T14:12:34.951Z,20.60
2019-05-20T14:16:45.476Z,20.70
2019-05-20T14:20:55.786Z,20.70
2019-05-20T14:25:07.933Z,20.80
2019-05-20T14:29:18.288Z,21.00
2019-05-20T14:33:28.627Z,21.10
2019-05-20T14:37:39.363Z,21.20
2019-05-20T14:41:49.889Z,21.20
2019-05-20T14:46:00.695Z,21.20
2019-05-20T14:50:11.381Z,21.30
2019-05-20T14:54:22.258Z,21.30
2019-05-20T14:58:32.576Z,21.30
2019-05-20T15:02:42.778Z,21.30
2019-05-20T15:06:53.834Z,21.50
2019-05-20T15:11:04.215Z,21.50
2019-05-20T15:15:16.544Z,21.30
2019-05-20T15:19:26.889Z,21.10
2019-05-20T15:23:39.167Z,21.00
2019-05-20T15:27:49.960Z,21.00
2019-05-20T15:32:00.335Z,21.00
2019-05-20T15:36:10.643Z,21.00
2019-05-20T15:40:24.132Z,21.20
2019-05-20T15:44:32.865Z,21.40
2019-05-20T15:48:43.164Z,21.30
2019-05-20T15:52:53.531Z,21.10
2019-05-20T15:57:03.826Z,20.90
2019-05-20T16:01:14.145Z,20.90
2019-05-20T16:05:24.439Z,20.90
2019-05-20T16:09:34.729Z,20.90
2019-05-20T16:13:45.070Z,20.80
2019-05-20T16:17:55.466Z,20.80
2019-05-20T16:22:05.906Z,20.90
2019-05-20T16:26:18.094Z,21.00
2019-05-20T16:30:28.490Z,21.10
2019-05-20T16:34:39.835Z,21.20
2019-05-20T16:38:51.713Z,21.20
2019-05-20T16:43:02.175Z,21.20
2019-05-20T16:47:12.514Z,21.20
2019-05-20T16:51:23.377Z,21.20
2019-05-20T16:55:33.752Z,21.20
2019-05-20T16:59:44.085Z,21.20
2019-05-20T17:03:54.412Z,21.10
2019-05-20T17:08:04.628Z,20.90
2019-05-20T17:12:14.930Z,20.30
2019-05-20T17:16:25.245Z,19.10
2019-05-20T17:20:35.546Z,18.10
2019-05-20T17:24:47.053Z,17.60
2019-05-20T17:28:57.503Z,17.20
2019-05-20T17:33:07.846Z,16.90
2019-05-20T17:37:18.398Z,16.90
2019-05-20T17:41:28.857Z,16.80
2019-05-20T17:45:40.325Z,16.90
2019-05-20T17:49:50.838Z,16.90
2019-05-20T17:54:01.181Z,17.00
2019-05-20T17:58:12.599Z,17.00
2019-05-20T18:02:23.026Z,16.90
2019-05-20T18:06:33.396Z,16.90
2019-05-20T18:10:43.673Z,17.10
2019-05-20T18:14:55.538Z,17.20
2019-05-20T18:19:05.765Z,17.20
2019-05-20T18:23:16.084Z,17.20
2019-05-20T18:27:26.275Z,17.10
2019-05-20T18:31:36.611Z,16.90
2019-05-20T18:35:46.969Z,16.90
2019-05-20T18:40:12.788Z,16.70
2019-05-20T18:44:13.196Z,16.60
2019-05-20T18:48:21.879Z,16.60
2019-05-20T18:52:32.357Z,16.40
2019-05-20T18:56:42.706Z,16.30
2019-05-20T19:00:53.423Z,16.20
2019-05-20T19:05:07.087Z,16.20
2019-05-20T19:09:17.794Z,16.20
2019-05-20T19:13:28.156Z,16.10
2019-05-20T19:17:38.669Z,16.00
2019-05-20T19:21:50.091Z,16.00
2019-05-20T19:26:00.417Z,15.80
2019-05-20T19:30:11.330Z,15.70
2019-05-20T19:34:21.878Z,15.70
2019-05-20T19:38:34.926Z,15.70
2019-05-20T19:42:44.400Z,15.80
2019-05-20T19:46:54.707Z,15.80
2019-05-20T19:51:05.017Z,15.90
2019-05-20T19:55:18.621Z,16.00
2019-05-20T19:59:27.342Z,15.90
2019-05-20T20:03:37.548Z,15.90
2019-05-20T20:07:47.987Z,15.90
2019-05-20T20:11:58.641Z,15.90
2019-05-20T20:16:09.050Z,15.90
2019-05-20T20:20:19.355Z,15.90
2019-05-20T20:24:29.596Z,15.80
2019-05-20T20:28:40.814Z,15.90
2019-05-20T20:32:51.569Z,15.90
2019-05-20T20:37:01.880Z,15.80
2019-05-20T20:41:12.314Z,15.80
2019-05-20T20:45:22.738Z,15.70
2019-05-20T20:49:33.104Z,15.80
2019-05-20T20:53:43.437Z,15.80
2019-05-20T20:57:54.013Z,15.80
2019-05-20T21:02:04.565Z,15.90
2019-05-20T21:06:15.021Z,15.80
2019-05-20T21:10:26.936Z,15.70
2019-05-20T21:14:37.278Z,15.80
2019-05-20T21:18:48.715Z,15.80
2019-05-20T21:22:59.156Z,15.70
2019-05-20T21:27:09.517Z,15.60
2019-05-20T21:31:19.791Z,15.70
2019-05-20T21:35:30.201Z,15.60
2019-05-20T21:39:40.846Z,15.60
2019-05-20T21:43:51.233Z,15.50
2019-05-20T21:48:01.686Z,15.40
2019-05-20T21:52:12.070Z,15.40
2019-05-20T21:56:22.381Z,15.30
2019-05-20T22:00:37.339Z,15.20
2019-05-20T22:04:48.635Z,15.20
2019-05-20T22:08:58.959Z,15.10
2019-05-20T22:13:09.404Z,15.10
2019-05-20T22:17:19.715Z,15.00
2019-05-20T22:21:34.276Z,15.00
2019-05-20T22:25:46.748Z,14.90
2019-05-20T22:29:57.101Z,14.70
2019-05-20T22:34:07.426Z,14.60
2019-05-20T22:38:18.740Z,14.50
2019-05-20T22:42:29.107Z,14.40
2019-05-20T22:46:39.418Z,14.30
2019-05-20T22:50:51.006Z,14.20
2019-05-20T22:55:01.307Z,14.20
2019-05-20T22:59:12.132Z,14.10
2019-05-20T23:03:23.500Z,14.10
2019-05-20T23:07:33.764Z,14.00
2019-05-20T23:11:44.061Z,13.80
2019-05-20T23:15:55.774Z,13.70
2019-05-20T23:20:07.917Z,13.70
2019-05-20T23:24:18.374Z,13.60
2019-05-20T23:28:28.605Z,13.50
2019-05-20T23:32:39.341Z,13.40
2019-05-20T23:36:49.845Z,13.30
2019-05-20T23:41:01.526Z,13.10
2019-05-20T23:45:12.203Z,13.00
2019-05-20T23:49:22.534Z,13.00
2019-05-20T23:53:32.984Z,13.00
2019-05-20T23:57:43.834Z,13.00
